Aviation Digital Data Service (ADDS)

Output produced by METARs form (1059 UTC 19 January 2019)
found at http://www.aviationweather.gov/metar/data/
 
RPLC 191000Z 04004KT 9999 SCT020 BKN100 27/20 Q1013 NOSIG RMK A2991
TAF RPLC 190500Z 1906/2012 07008KT 9999 FEW020 BKN300 TX30/1906Z TN22/1922Z 
     TEMPO 1906/1912 09010KT SCT020 BKN100
       
RPVD 190900Z 29006KT 9999 VCSH FEW014TCU BKN015 OVC080 26/24 Q1009 RESHRA RMK A2980 TCU NW-N,VCSHE,SW,NW
TAF RPVD 190500Z 1906/2006 04008KT 9999 SCT015 BKN080 
     TEMPO 1906/1912 36014KT 9000 -SHRA FEW014CB SCT015 OVC080
       
RPMD 191000Z 35004KT 300V050 9999 FEW016 BKN090 OVC260 25/23 Q1009 RERA RMK A2980
TAF RPMD 190500Z 1906/2006 34007KT 9999 FEW016 SCT090 BKN290 
     TEMPO 1908/1914 36014KT FEW015CB BKN090 OVC290
       
TAF RPVK 190500Z 1906/2006 04008KT 9999 FEW016 BKN070 
     TEMPO 1906/1912 07014KT -SHRA SCT016 OVC070
       
RPLI 191000Z VRB02KT 9999 SCT018 BKN090 27/22 Q1012 NOSIG RMK A2988
TAF RPLI 190500Z 1906/2006 02008KT 9999 FEW018 
     TEMPO 1906/1912 05018KT FEW018 SCT100
       
RPVM 191000Z 02010KT 9999 FEW020 OVC100 27/21 Q1011 RMK A2985
TAF RPVM 190500Z 1906/2012 02010KT 9999 FEW020 BKN100 
     TEMPO 1906/1912 04015KT FEW020 OVC090 
     TEMPO 1912/1918 01012KT 9000 -SHRA SCT020 OVC090
       
RPLL 191000Z 09010KT 9999 FEW023 29/20 Q1011 NOSIG RMK A2985
TAF RPLL 190500Z 1906/2012 10008KT 9999 FEW025 SCT300 TX31/1906Z TN24/1922Z 
     TEMPO 1906/1912 09016KT SCT023 SCT100 
     TEMPO 1912/1918 06012KT FEW023 SCT100
       
RPVP 191000Z 09020KT 9999 FEW019 28/22 Q1010 RMK A2983
TAF RPVP 190500Z 1906/2006 09012KT 9999 FEW020 
     TEMPO 1906/1912 07020KT FEW019 BKN080
       
RPLB 191000Z 09009KT 050V110 9999 FEW020 BKN080 28/19 Q1012 NOSIG RMK A2988
TAF RPLB 190500Z 1906/2006 08008KT 9999 FEW020 SCT300 TX31/1906Z TN21/1922Z 
     TEMPO 1906/1912 07010G20KT SCT020 BKN080
       
RPMR 190900Z 04010KT 9999 VCSH FEW018 OVC080 30/20 Q1010 NOSIG RMK A2983 VCSH N,E
TAF RPMR 190500Z 1906/2006 04010KT 9999 FEW018 SCT080 BKN250 
     TEMPO 1906/1912 36012KT FEW016CB BKN080
       
RPMZ 191000Z VRB01KT 9999 FEW017 OVC090 28/23 Q1008 RMK A2977
TAF RPMZ 190500Z 1906/2006 06006KT 9999 FEW017 SCT300 
     TEMPO 1906/1912 08012KT FEW016CB SCT090 BKN300